Time;durP1;ratioP1;P1;durP2;ratioP2;P2;SDS_P1;SDS_P2;PMS_P1;PMS_P2;Temp;Humidity;BMP_temperature;BMP_pressure;BME280_temperature;BME280_humidity;BME280_pressure;Samples;Min_cycle;Max_cycle;Signal;HPM_P1;HPM_P2
2023/04/22 00:02:03;;;;;;;12.07;11.48;;;;;;;;;;5052108;28;20099;-68
2023/04/22 00:04:30;;;;;;;11.70;11.15;;;;;;;;;;5042312;28;20045;-69
2023/04/22 00:06:55;;;;;;;11.45;10.95;;;;;;;;;;5049277;28;20405;-68
2023/04/22 00:09:20;;;;;;;11.30;10.80;;;;;;;;;;5046779;28;20026;-68
2023/04/22 00:11:46;;;;;;;12.10;11.50;;;;;;;;;;5045141;28;20333;-68
2023/04/22 00:14:11;;;;;;;13.55;12.75;;;;;;;;;;5045736;28;20052;-68
2023/04/22 00:16:37;;;;;;;12.25;11.65;;;;;;;;;;5049572;28;20044;-68
2023/04/22 00:19:03;;;;;;;12.88;12.18;;;;;;;;;;5050319;28;20020;-68
2023/04/22 00:21:29;;;;;;;11.82;11.23;;;;;;;;;;5043687;28;20025;-68
2023/04/22 00:23:54;;;;;;;12.82;12.13;;;;;;;;;;5049744;28;20468;-69
2023/04/22 00:26:20;;;;;;;13.02;12.32;;;;;;;;;;5046227;28;20087;-68
2023/04/22 00:28:45;;;;;;;12.30;11.70;;;;;;;;;;5050802;28;20021;-68
2023/04/22 00:31:10;;;;;;;11.98;11.38;;;;;;;;;;5045882;28;20086;-68
2023/04/22 00:33:36;;;;;;;11.43;10.93;;;;;;;;;;5050727;28;20515;-68
2023/04/22 00:36:01;;;;;;;13.05;12.32;;;;;;;;;;5048791;28;20031;-68
2023/04/22 00:38:26;;;;;;;12.10;11.50;;;;;;;;;;5049613;28;20127;-68
2023/04/22 00:40:52;;;;;;;12.00;11.40;;;;;;;;;;5048012;28;20029;-67
2023/04/22 00:43:17;;;;;;;11.90;11.30;;;;;;;;;;5049027;28;20029;-67
2023/04/22 00:45:43;;;;;;;12.05;11.45;;;;;;;;;;5047475;28;20017;-67
2023/04/22 00:48:08;;;;;;;12.15;11.55;;;;;;;;;;5051265;28;20532;-68
2023/04/22 00:50:34;;;;;;;12.30;11.70;;;;;;;;;;5049206;28;20047;-68
2023/04/22 00:52:59;;;;;;;12.35;11.75;;;;;;;;;;5049524;28;20374;-68
2023/04/22 00:55:24;;;;;;;11.95;11.35;;;;;;;;;;5050036;28;20020;-68
2023/04/22 00:57:50;;;;;;;12.07;11.48;;;;;;;;;;5042540;28;20032;-68
2023/04/22 01:00:16;;;;;;;12.35;11.65;;;;;;;;;;5046172;28;20477;-68
2023/04/22 01:02:41;;;;;;;11.65;11.10;;;;;;;;;;5049887;28;20029;-68
2023/04/22 01:05:10;;;;;;;12.07;11.48;;;;;;;;;;5050878;28;20021;-68
2023/04/22 01:07:36;;;;;;;11.95;11.35;;;;;;;;;;5048124;28;20036;-68
2023/04/22 01:10:01;;;;;;;11.60;11.07;;;;;;;;;;5051586;28;20025;-68
2023/04/22 01:12:27;;;;;;;11.80;11.20;;;;;;;;;;5046784;28;20045;-69
2023/04/22 01:14:52;;;;;;;11.70;11.10;;;;;;;;;;5045582;28;20021;-68
2023/04/22 01:17:18;;;;;;;11.75;11.15;;;;;;;;;;5042265;28;20435;-68
2023/04/22 01:19:43;;;;;;;12.23;11.63;;;;;;;;;;5049282;28;20033;-68
2023/04/22 01:22:11;;;;;;;12.00;11.40;;;;;;;;;;5049167;28;20028;-68
2023/04/22 01:24:36;;;;;;;11.85;11.25;;;;;;;;;;5049741;28;20032;-68
2023/04/22 01:27:02;;;;;;;11.82;11.23;;;;;;;;;;5049821;28;20021;-68
2023/04/22 01:29:27;;;;;;;11.80;11.20;;;;;;;;;;5049356;28;20025;-68
2023/04/22 01:31:53;;;;;;;11.88;11.27;;;;;;;;;;5044758;28;20020;-68
2023/04/22 01:34:18;;;;;;;11.43;10.93;;;;;;;;;;5049367;28;20031;-68
2023/04/22 01:36:44;;;;;;;12.20;11.60;;;;;;;;;;5046460;28;20419;-68
2023/04/22 01:39:09;;;;;;;11.75;11.15;;;;;;;;;;5049313;28;20388;-68
2023/04/22 01:41:35;;;;;;;12.75;12.05;;;;;;;;;;5046972;28;20477;-68
2023/04/22 01:44:01;;;;;;;11.32;10.82;;;;;;;;;;5050132;28;20020;-68
2023/04/22 01:46:27;;;;;;;12.50;11.85;;;;;;;;;;5049029;28;20087;-68
2023/04/22 01:48:52;;;;;;;12.35;11.75;;;;;;;;;;5042304;28;20420;-68
2023/04/22 01:51:19;;;;;;;12.50;11.80;;;;;;;;;;5048146;28;20037;-68
2023/04/22 01:53:45;;;;;;;12.55;11.85;;;;;;;;;;5048092;28;20025;-68
2023/04/22 01:56:10;;;;;;;12.77;12.07;;;;;;;;;;5046099;28;20017;-68
2023/04/22 01:58:37;;;;;;;11.95;11.35;;;;;;;;;;5049766;28;20021;-69
2023/04/22 02:01:03;;;;;;;12.23;11.63;;;;;;;;;;5047314;28;20045;-68
2023/04/22 02:03:28;;;;;;;12.32;11.68;;;;;;;;;;5043303;28;20021;-69
2023/04/22 02:05:53;;;;;;;11.90;11.30;;;;;;;;;;5047555;28;20514;-69
2023/04/22 02:08:18;;;;;;;11.52;11.00;;;;;;;;;;5049403;28;20025;-69
2023/04/22 02:10:44;;;;;;;11.80;11.20;;;;;;;;;;5047756;28;20032;-69
2023/04/22 02:13:09;;;;;;;12.68;11.98;;;;;;;;;;5046322;28;20060;-69
2023/04/22 02:15:34;;;;;;;11.40;10.90;;;;;;;;;;5049833;28;20021;-69
2023/04/22 02:18:01;;;;;;;12.30;11.65;;;;;;;;;;5047683;28;20029;-68
2023/04/22 02:20:26;;;;;;;11.65;11.05;;;;;;;;;;5038652;28;20115;-68
2023/04/22 02:22:51;;;;;;;11.77;11.18;;;;;;;;;;5046474;28;20117;-68
2023/04/22 02:25:17;;;;;;;12.10;11.50;;;;;;;;;;5047438;28;20021;-68
2023/04/22 02:27:42;;;;;;;11.77;11.18;;;;;;;;;;5043015;28;20036;-69
2023/04/22 02:30:08;;;;;;;11.80;11.20;;;;;;;;;;5049721;28;20017;-69
2023/04/22 02:32:35;;;;;;;11.90;11.30;;;;;;;;;;5041287;28;20044;-69
2023/04/22 02:35:01;;;;;;;11.85;11.25;;;;;;;;;;5049714;28;20039;-68
2023/04/22 02:37:27;;;;;;;13.05;12.35;;;;;;;;;;5047554;28;20087;-69
2023/04/22 02:39:52;;;;;;;12.00;11.40;;;;;;;;;;5046041;28;20033;-68
2023/04/22 02:42:17;;;;;;;11.85;11.25;;;;;;;;;;5049499;28;20025;-69
2023/04/22 02:44:43;;;;;;;12.93;12.23;;;;;;;;;;5048442;28;20024;-69
2023/04/22 02:47:08;;;;;;;12.13;11.52;;;;;;;;;;5049642;28;20025;-69
2023/04/22 02:49:33;;;;;;;11.98;11.38;;;;;;;;;;5048598;28;20124;-69
2023/04/22 02:51:59;;;;;;;11.85;11.25;;;;;;;;;;5053432;28;20032;-69
2023/04/22 02:54:24;;;;;;;11.57;11.05;;;;;;;;;;5041631;28;20025;-69
2023/04/22 02:56:49;;;;;;;12.38;11.77;;;;;;;;;;5047305;28;20081;-69
2023/04/22 02:59:15;;;;;;;11.75;11.15;;;;;;;;;;5053086;28;20025;-68
2023/04/22 03:01:40;;;;;;;12.27;11.65;;;;;;;;;;5048440;28;20052;-68
2023/04/22 03:04:05;;;;;;;12.20;11.60;;;;;;;;;;5049698;28;20044;-68
2023/04/22 03:06:31;;;;;;;13.93;13.13;;;;;;;;;;5036562;28;20113;-69
2023/04/22 03:08:56;;;;;;;12.63;11.93;;;;;;;;;;5045298;28;20037;-68
2023/04/22 03:11:22;;;;;;;11.88;11.27;;;;;;;;;;5052300;28;20024;-68
2023/04/22 03:13:47;;;;;;;12.05;11.45;;;;;;;;;;5044574;28;20021;-70
2023/04/22 03:16:12;;;;;;;12.10;11.50;;;;;;;;;;5049771;28;20029;-69
2023/04/22 03:18:38;;;;;;;11.75;11.15;;;;;;;;;;5049888;28;20032;-69
2023/04/22 03:21:03;;;;;;;12.65;11.95;;;;;;;;;;5047637;28;20025;-69
2023/04/22 03:23:28;;;;;;;11.93;11.32;;;;;;;;;;5048670;28;20056;-69
2023/04/22 03:25:54;;;;;;;11.75;11.15;;;;;;;;;;5049094;28;20021;-69
2023/04/22 03:28:19;;;;;;;11.75;11.15;;;;;;;;;;5051416;28;20017;-70
2023/04/22 03:30:45;;;;;;;12.90;12.20;;;;;;;;;;5050355;28;20029;-69
2023/04/22 03:33:10;;;;;;;12.43;11.77;;;;;;;;;;5049245;28;20392;-69
2023/04/22 03:35:35;;;;;;;12.10;11.50;;;;;;;;;;5049123;28;20030;-68
2023/04/22 03:38:01;;;;;;;11.80;11.20;;;;;;;;;;5051306;28;20040;-69
2023/04/22 03:40:26;;;;;;;12.10;11.50;;;;;;;;;;5047037;28;20039;-69
2023/04/22 03:42:51;;;;;;;12.20;11.60;;;;;;;;;;5047870;28;20107;-69
2023/04/22 03:45:17;;;;;;;12.27;11.68;;;;;;;;;;5050436;28;20024;-69
2023/04/22 03:47:42;;;;;;;12.35;11.73;;;;;;;;;;5043807;28;20099;-69
2023/04/22 03:50:07;;;;;;;11.38;10.88;;;;;;;;;;5050648;28;20088;-69
2023/04/22 03:52:33;;;;;;;11.45;10.95;;;;;;;;;;5050643;28;20480;-69
2023/04/22 03:54:58;;;;;;;11.88;11.27;;;;;;;;;;5046812;28;20028;-68
2023/04/22 03:57:23;;;;;;;11.50;11.00;;;;;;;;;;5045555;28;20091;-69
2023/04/22 03:59:49;;;;;;;11.95;11.35;;;;;;;;;;5045110;28;20024;-69
2023/04/22 04:02:14;;;;;;;12.55;11.85;;;;;;;;;;5037913;28;20036;-68
2023/04/22 04:04:39;;;;;;;12.02;11.43;;;;;;;;;;5048716;28;20017;-68
2023/04/22 04:07:06;;;;;;;12.45;11.75;;;;;;;;;;5045599;28;20511;-69
2023/04/22 04:09:31;;;;;;;12.07;11.48;;;;;;;;;;5050582;28;20088;-70
2023/04/22 04:11:56;;;;;;;11.32;10.82;;;;;;;;;;5050715;28;20060;-69
2023/04/22 04:14:22;;;;;;;11.50;11.00;;;;;;;;;;5044400;28;20055;-69
2023/04/22 04:16:47;;;;;;;11.90;11.30;;;;;;;;;;5042954;28;20029;-69
2023/04/22 04:19:12;;;;;;;11.90;11.30;;;;;;;;;;5049472;28;20795;-69
2023/04/22 04:21:38;;;;;;;11.77;11.20;;;;;;;;;;5050493;28;20036;-69
2023/04/22 04:24:04;;;;;;;13.27;12.55;;;;;;;;;;5047929;28;20079;-69
2023/04/22 04:26:31;;;;;;;12.75;12.05;;;;;;;;;;5049240;28;20029;-69
2023/04/22 04:28:56;;;;;;;12.13;11.52;;;;;;;;;;5047600;28;20131;-69
2023/04/22 04:31:23;;;;;;;12.55;11.85;;;;;;;;;;5048396;28;20032;-69
2023/04/22 04:33:49;;;;;;;12.52;11.88;;;;;;;;;;5049979;28;20607;-69
2023/04/22 04:36:14;;;;;;;12.60;11.90;;;;;;;;;;5049225;28;20032;-69
2023/04/22 04:38:39;;;;;;;11.68;11.15;;;;;;;;;;5045485;28;20075;-69
2023/04/22 04:41:07;;;;;;;12.18;11.57;;;;;;;;;;5046383;28;20017;-69
2023/04/22 04:43:32;;;;;;;12.55;11.95;;;;;;;;;;5046793;28;20111;-69
2023/04/22 04:45:58;;;;;;;12.05;11.45;;;;;;;;;;5049066;28;20175;-68
2023/04/22 04:48:26;;;;;;;12.23;11.63;;;;;;;;;;5049914;28;20071;-68
2023/04/22 04:50:53;;;;;;;12.75;12.05;;;;;;;;;;5045317;28;20033;-69
2023/04/22 04:53:21;;;;;;;13.13;12.43;;;;;;;;;;5044781;28;20206;-68
2023/04/22 04:55:46;;;;;;;12.45;11.85;;;;;;;;;;5040758;28;20021;-69
2023/04/22 04:58:12;;;;;;;12.75;12.07;;;;;;;;;;5043867;28;20020;-70
2023/04/22 05:00:37;;;;;;;12.60;11.90;;;;;;;;;;5043422;28;20075;-69
2023/04/22 05:03:03;;;;;;;12.38;11.77;;;;;;;;;;5046215;28;20029;-68
2023/04/22 05:05:28;;;;;;;12.73;12.02;;;;;;;;;;5045294;28;20554;-70
2023/04/22 05:07:53;;;;;;;12.23;11.63;;;;;;;;;;5047070;28;20412;-68
2023/04/22 05:10:20;;;;;;;12.38;11.77;;;;;;;;;;5048205;28;20063;-69
2023/04/22 05:12:46;;;;;;;11.95;11.38;;;;;;;;;;5040240;28;20113;-69
2023/04/22 05:15:12;;;;;;;12.02;11.43;;;;;;;;;;5046013;28;20528;-68
2023/04/22 05:17:37;;;;;;;14.68;13.77;;;;;;;;;;5041408;28;20143;-67
2023/04/22 05:20:03;;;;;;;12.18;11.57;;;;;;;;;;5042798;28;20056;-67
2023/04/22 05:22:28;;;;;;;12.15;11.55;;;;;;;;;;5045866;28;20039;-68
2023/04/22 05:24:54;;;;;;;12.68;11.98;;;;;;;;;;5046280;28;20532;-67
2023/04/22 05:27:19;;;;;;;12.20;11.60;;;;;;;;;;5047001;28;20029;-68
2023/04/22 05:29:44;;;;;;;13.05;12.35;;;;;;;;;;5044803;28;20033;-69
2023/04/22 05:32:10;;;;;;;12.40;11.77;;;;;;;;;;5041685;28;20108;-68
2023/04/22 05:34:35;;;;;;;11.63;11.07;;;;;;;;;;5040485;28;20033;-69
2023/04/22 05:37:02;;;;;;;11.85;11.25;;;;;;;;;;5048775;28;20250;-68
2023/04/22 05:39:28;;;;;;;12.52;11.85;;;;;;;;;;5047217;28;20044;-69
2023/04/22 05:41:53;;;;;;;11.57;11.07;;;;;;;;;;5049283;28;20075;-69
2023/04/22 05:44:19;;;;;;;12.75;12.05;;;;;;;;;;5047128;28;20050;-68
2023/04/22 05:46:44;;;;;;;11.70;11.10;;;;;;;;;;5048027;28;20107;-68
2023/04/22 05:49:09;;;;;;;12.30;11.70;;;;;;;;;;5046860;28;20019;-68
2023/04/22 05:51:35;;;;;;;12.30;11.70;;;;;;;;;;5048948;28;20508;-68
2023/04/22 05:54:00;;;;;;;12.82;12.13;;;;;;;;;;5047470;28;20021;-67
2023/04/22 05:56:25;;;;;;;12.45;11.85;;;;;;;;;;5044222;28;20025;-67
2023/04/22 05:58:51;;;;;;;12.70;12.10;;;;;;;;;;5048934;28;20033;-68
2023/04/22 06:01:16;;;;;;;13.73;13.02;;;;;;;;;;5038852;28;20049;-68
2023/04/22 06:03:41;;;;;;;12.40;11.80;;;;;;;;;;5044884;28;20021;-67
2023/04/22 06:06:07;;;;;;;13.50;12.80;;;;;;;;;;5048511;28;20151;-68
2023/04/22 06:08:32;;;;;;;12.35;11.75;;;;;;;;;;5039529;28;20021;-67
2023/04/22 06:10:57;;;;;;;12.70;12.10;;;;;;;;;;5050983;28;20039;-68
2023/04/22 06:13:23;;;;;;;12.50;11.90;;;;;;;;;;5041041;28;20488;-68
2023/04/22 06:15:48;;;;;;;12.98;12.32;;;;;;;;;;5044802;28;20032;-68
2023/04/22 06:18:13;;;;;;;13.60;12.90;;;;;;;;;;5039065;28;20041;-67
2023/04/22 06:20:39;;;;;;;12.75;12.15;;;;;;;;;;5045589;28;20585;-68
2023/04/22 06:23:04;;;;;;;13.18;12.48;;;;;;;;;;5052323;28;20052;-68
2023/04/22 06:25:30;;;;;;;13.15;12.45;;;;;;;;;;5043833;28;20092;-68
2023/04/22 06:27:57;;;;;;;14.07;13.27;;;;;;;;;;5044804;28;20017;-68
2023/04/22 06:30:22;;;;;;;12.40;11.80;;;;;;;;;;5051014;28;20651;-68
2023/04/22 06:32:47;;;;;;;12.52;11.93;;;;;;;;;;5045607;28;20037;-68
2023/04/22 06:35:13;;;;;;;13.45;12.75;;;;;;;;;;5047984;28;20035;-70
2023/04/22 06:37:38;;;;;;;12.40;11.80;;;;;;;;;;5046909;28;20381;-67
2023/04/22 06:40:04;;;;;;;12.68;12.07;;;;;;;;;;5046385;28;20071;-68
2023/04/22 06:42:29;;;;;;;12.60;12.00;;;;;;;;;;5051699;28;20028;-67
2023/04/22 06:44:55;;;;;;;12.60;12.00;;;;;;;;;;5047875;28;20649;-68
2023/04/22 06:47:20;;;;;;;13.25;12.55;;;;;;;;;;5045051;28;20041;-68
2023/04/22 06:49:45;;;;;;;18.00;16.83;;;;;;;;;;5047121;28;20540;-68
2023/04/22 06:52:11;;;;;;;14.65;13.85;;;;;;;;;;5035129;28;20027;-67
2023/04/22 06:54:37;;;;;;;12.70;12.10;;;;;;;;;;5045862;28;20028;-68
2023/04/22 06:57:02;;;;;;;12.27;11.68;;;;;;;;;;5051255;28;20053;-68
2023/04/22 06:59:28;;;;;;;12.98;12.30;;;;;;;;;;5051207;28;20060;-68
2023/04/22 07:01:53;;;;;;;12.07;11.48;;;;;;;;;;5041525;28;20068;-68
2023/04/22 07:04:18;;;;;;;13.00;12.30;;;;;;;;;;5049610;28;20512;-68
2023/04/22 07:06:44;;;;;;;12.27;11.68;;;;;;;;;;5051191;28;20025;-68
2023/04/22 07:09:09;;;;;;;13.20;12.50;;;;;;;;;;5044341;28;20523;-68
2023/04/22 07:11:35;;;;;;;13.30;12.60;;;;;;;;;;5050940;28;20029;-67
2023/04/22 07:14:00;;;;;;;13.02;12.35;;;;;;;;;;5044076;28;20021;-68
2023/04/22 07:16:26;;;;;;;13.52;12.82;;;;;;;;;;5050538;28;20108;-67
2023/04/22 07:18:51;;;;;;;12.90;12.30;;;;;;;;;;5051767;28;20059;-68
2023/04/22 07:21:17;;;;;;;12.82;12.23;;;;;;;;;;5046742;28;20056;-68
2023/04/22 07:23:42;;;;;;;12.57;11.98;;;;;;;;;;5050421;28;20044;-67
2023/04/22 07:26:07;;;;;;;12.18;11.57;;;;;;;;;;5051567;28;20552;-68
2023/04/22 07:28:33;;;;;;;11.63;11.13;;;;;;;;;;5051464;28;20154;-68
2023/04/22 07:30:58;;;;;;;11.52;11.02;;;;;;;;;;5051728;28;20053;-68
2023/04/22 07:33:23;;;;;;;12.52;11.93;;;;;;;;;;5050470;28;20133;-69
2023/04/22 07:35:48;;;;;;;12.50;11.90;;;;;;;;;;5048322;28;20162;-68
2023/04/22 07:38:14;;;;;;;12.45;11.85;;;;;;;;;;5048600;28;20029;-68
2023/04/22 07:40:39;;;;;;;12.63;12.02;;;;;;;;;;5049432;28;20602;-68
2023/04/22 07:43:05;;;;;;;12.93;12.32;;;;;;;;;;5047006;28;20164;-67
2023/04/22 07:45:30;;;;;;;13.07;12.48;;;;;;;;;;5049657;28;20391;-69
2023/04/22 07:47:56;;;;;;;12.95;12.35;;;;;;;;;;5044564;28;20029;-67
2023/04/22 07:50:21;;;;;;;13.10;12.50;;;;;;;;;;5042825;28;20032;-67
2023/04/22 07:52:46;;;;;;;12.80;12.20;;;;;;;;;;5043324;28;20664;-67
2023/04/22 07:55:12;;;;;;;12.90;12.30;;;;;;;;;;5048424;28;20028;-67
2023/04/22 07:57:37;;;;;;;13.02;12.43;;;;;;;;;;5035309;28;20060;-62
2023/04/22 08:00:03;;;;;;;12.68;12.07;;;;;;;;;;5039841;28;20551;-63
2023/04/22 08:02:28;;;;;;;12.70;12.10;;;;;;;;;;5048771;28;20476;-63
2023/04/22 08:04:54;;;;;;;13.13;12.52;;;;;;;;;;5042032;28;20031;-63
2023/04/22 08:07:19;;;;;;;13.48;12.88;;;;;;;;;;5050299;28;20021;-63
2023/04/22 08:09:44;;;;;;;13.43;12.82;;;;;;;;;;5039589;28;20029;-63
2023/04/22 08:12:10;;;;;;;13.35;12.75;;;;;;;;;;5044526;28;20480;-63
2023/04/22 08:14:35;;;;;;;12.68;12.07;;;;;;;;;;5046017;28;20028;-63
2023/04/22 08:17:00;;;;;;;13.60;12.90;;;;;;;;;;5034591;28;20679;-63
2023/04/22 08:19:25;;;;;;;14.53;13.83;;;;;;;;;;5038677;28;20032;-63
2023/04/22 08:21:51;;;;;;;13.25;12.65;;;;;;;;;;5038354;28;20353;-63
2023/04/22 08:24:16;;;;;;;13.82;13.13;;;;;;;;;;5042513;28;20025;-63
2023/04/22 08:26:41;;;;;;;14.00;13.30;;;;;;;;;;5049766;28;20029;-64
2023/04/22 08:29:07;;;;;;;14.27;13.57;;;;;;;;;;5048905;28;20021;-62
2023/04/22 08:31:33;;;;;;;13.10;12.50;;;;;;;;;;5032392;28;20076;-62
2023/04/22 08:33:58;;;;;;;13.32;12.68;;;;;;;;;;5033901;28;20132;-63
2023/04/22 08:36:25;;;;;;;13.30;12.70;;;;;;;;;;5041825;28;20021;-62
2023/04/22 08:38:50;;;;;;;13.98;13.27;;;;;;;;;;5046775;28;20035;-61
2023/04/22 08:41:17;;;;;;;13.40;12.70;;;;;;;;;;5034858;28;20025;-62
2023/04/22 08:43:44;;;;;;;14.10;13.40;;;;;;;;;;5036579;28;20477;-62
2023/04/22 08:46:09;;;;;;;13.98;13.27;;;;;;;;;;5031614;28;20104;-62
2023/04/22 08:48:35;;;;;;;13.88;13.18;;;;;;;;;;5035476;28;20135;-63
2023/04/22 08:51:01;;;;;;;12.75;12.15;;;;;;;;;;5045466;28;20046;-63
2023/04/22 08:53:26;;;;;;;12.80;12.20;;;;;;;;;;5046512;28;20346;-61
2023/04/22 08:55:54;;;;;;;13.82;13.13;;;;;;;;;;5037777;28;20475;-61
2023/04/22 08:58:20;;;;;;;13.63;12.93;;;;;;;;;;5042052;28;20041;-63
2023/04/22 09:00:46;;;;;;;14.90;14.10;;;;;;;;;;5040193;28;20672;-63
2023/04/22 09:03:11;;;;;;;13.75;13.05;;;;;;;;;;5043422;28;20048;-64
2023/04/22 09:05:39;;;;;;;13.20;12.60;;;;;;;;;;5048532;28;20021;-64
2023/04/22 09:08:04;;;;;;;12.93;12.32;;;;;;;;;;5042623;28;20025;-62
2023/04/22 09:10:30;;;;;;;12.85;12.25;;;;;;;;;;5049816;28;20456;-63
2023/04/22 09:12:56;;;;;;;13.25;12.65;;;;;;;;;;5051624;28;20021;-63
2023/04/22 09:15:21;;;;;;;12.80;12.20;;;;;;;;;;5051038;28;20021;-63
2023/04/22 09:17:49;;;;;;;12.35;11.75;;;;;;;;;;5043727;28;20072;-63
2023/04/22 09:20:16;;;;;;;12.63;12.02;;;;;;;;;;5047396;28;20074;-63
2023/04/22 09:22:43;;;;;;;14.10;13.40;;;;;;;;;;5045991;28;20148;-63
2023/04/22 09:25:15;;;;;;;12.88;12.27;;;;;;;;;;5035717;28;20029;-62
2023/04/22 09:27:41;;;;;;;13.63;12.93;;;;;;;;;;5046746;28;20013;-63
2023/04/22 09:30:07;;;;;;;13.05;12.45;;;;;;;;;;5051162;28;20418;-62
2023/04/22 09:32:32;;;;;;;13.07;12.48;;;;;;;;;;5051751;28;20032;-63
2023/04/22 09:34:58;;;;;;;13.70;13.00;;;;;;;;;;5040031;28;20021;-62
2023/04/22 09:37:24;;;;;;;14.38;13.68;;;;;;;;;;5046421;28;20033;-63
2023/04/22 09:39:50;;;;;;;13.02;12.43;;;;;;;;;;5048309;28;20032;-63
2023/04/22 09:42:18;;;;;;;12.85;12.25;;;;;;;;;;5050969;28;20029;-63
2023/04/22 09:44:45;;;;;;;14.73;13.93;;;;;;;;;;5050750;28;20096;-63
2023/04/22 09:47:11;;;;;;;14.15;13.45;;;;;;;;;;5051161;28;20017;-63
2023/04/22 09:49:37;;;;;;;13.80;13.10;;;;;;;;;;5049620;28;20499;-62
2023/04/22 09:52:03;;;;;;;13.73;13.02;;;;;;;;;;5048426;28;20024;-63
2023/04/22 09:54:28;;;;;;;13.00;12.40;;;;;;;;;;5051357;28;20028;-62
2023/04/22 09:56:53;;;;;;;13.00;12.40;;;;;;;;;;5047444;28;20029;-63
2023/04/22 09:59:20;;;;;;;13.55;12.85;;;;;;;;;;5052053;28;20047;-64
2023/04/22 10:01:45;;;;;;;12.90;12.30;;;;;;;;;;5051651;28;20125;-63
2023/04/22 10:04:13;;;;;;;12.90;12.30;;;;;;;;;;5054845;28;20053;-63
2023/04/22 10:06:39;;;;;;;13.10;12.50;;;;;;;;;;5049455;28;20017;-62
2023/04/22 10:09:04;;;;;;;12.82;12.23;;;;;;;;;;5052477;28;20108;-62
2023/04/22 10:11:30;;;;;;;13.98;13.27;;;;;;;;;;5055277;28;20079;-62
2023/04/22 10:13:56;;;;;;;13.70;13.00;;;;;;;;;;5055219;28;20033;-63
2023/04/22 10:16:22;;;;;;;12.90;12.30;;;;;;;;;;5054805;28;20468;-62
2023/04/22 10:18:48;;;;;;;13.68;12.98;;;;;;;;;;5050874;28;20086;-63
2023/04/22 10:21:14;;;;;;;13.05;12.45;;;;;;;;;;5053539;28;20333;-63
2023/04/22 10:23:44;;;;;;;13.82;13.13;;;;;;;;;;5051271;28;20032;-63
2023/04/22 10:26:09;;;;;;;12.70;12.10;;;;;;;;;;5049580;28;20059;-63
2023/04/22 10:28:40;;;;;;;13.52;12.82;;;;;;;;;;5053629;28;20032;-64
2023/04/22 10:31:18;;;;;;;13.00;12.40;;;;;;;;;;5038638;28;20078;-64
2023/04/22 10:33:44;;;;;;;13.80;13.10;;;;;;;;;;5047804;28;20052;-64
2023/04/22 10:36:18;;;;;;;12.98;12.38;;;;;;;;;;5053918;28;20025;-63
2023/04/22 10:38:53;;;;;;;13.10;12.50;;;;;;;;;;5053080;28;20439;-63
2023/04/22 10:41:22;;;;;;;12.73;12.13;;;;;;;;;;5054399;28;20017;-63
2023/04/22 10:43:54;;;;;;;13.05;12.45;;;;;;;;;;5054460;28;20044;-65
2023/04/22 10:46:38;;;;;;;13.40;12.73;;;;;;;;;;5045704;28;20033;-64
2023/04/22 10:49:10;;;;;;;14.02;13.32;;;;;;;;;;5054310;28;20051;-64
2023/04/22 10:51:39;;;;;;;13.40;12.70;;;;;;;;;;5053598;28;20113;-63
2023/04/22 10:54:05;;;;;;;13.52;12.82;;;;;;;;;;5054098;28;20025;-63
2023/04/22 10:56:30;;;;;;;13.85;13.15;;;;;;;;;;5051279;28;20550;-63
2023/04/22 10:58:55;;;;;;;13.00;12.40;;;;;;;;;;5042395;28;20025;-63
2023/04/22 11:01:21;;;;;;;13.30;12.70;;;;;;;;;;5039257;28;20044;-63
2023/04/22 11:03:46;;;;;;;13.05;12.45;;;;;;;;;;5054134;28;20018;-63
2023/04/22 11:06:13;;;;;;;13.07;12.48;;;;;;;;;;5053875;28;20047;-64
2023/04/22 11:08:42;;;;;;;13.20;12.60;;;;;;;;;;5048267;28;20116;-64
2023/04/22 11:11:08;;;;;;;14.35;13.65;;;;;;;;;;5052646;28;20025;-63
2023/04/22 11:13:34;;;;;;;13.70;13.00;;;;;;;;;;5052182;28;20452;-63
2023/04/22 11:15:59;;;;;;;13.50;12.80;;;;;;;;;;5050778;28;20037;-63
2023/04/22 11:18:26;;;;;;;13.30;12.60;;;;;;;;;;5053932;28;20365;-63
2023/04/22 11:20:52;;;;;;;12.90;12.30;;;;;;;;;;5053520;28;20021;-62
2023/04/22 11:23:27;;;;;;;12.85;12.25;;;;;;;;;;5053493;28;20110;-64
2023/04/22 11:25:53;;;;;;;12.50;11.90;;;;;;;;;;5052600;28;20053;-63
2023/04/22 11:28:19;;;;;;;14.10;13.40;;;;;;;;;;5050778;28;20032;-63
2023/04/22 11:30:44;;;;;;;12.68;12.07;;;;;;;;;;5051189;28;20017;-63
2023/04/22 11:33:13;;;;;;;13.68;12.98;;;;;;;;;;5053167;28;20025;-63
2023/04/22 11:35:38;;;;;;;12.55;11.95;;;;;;;;;;5053518;28;20071;-64
2023/04/22 11:38:05;;;;;;;13.32;12.65;;;;;;;;;;5051640;28;20005;-64
2023/04/22 11:40:31;;;;;;;12.75;12.15;;;;;;;;;;5038621;28;20096;-63
2023/04/22 11:42:57;;;;;;;12.82;12.23;;;;;;;;;;5051101;28;20447;-63
2023/04/22 11:45:23;;;;;;;13.02;12.43;;;;;;;;;;5053276;28;20017;-63
2023/04/22 11:47:49;;;;;;;12.90;12.30;;;;;;;;;;5053198;28;20037;-63
2023/04/22 11:50:15;;;;;;;13.27;12.60;;;;;;;;;;5053436;28;20100;-62
2023/04/22 11:52:41;;;;;;;13.15;12.55;;;;;;;;;;5045608;28;20442;-62
2023/04/22 11:55:09;;;;;;;15.10;14.30;;;;;;;;;;5038761;28;20032;-62
2023/04/22 11:57:35;;;;;;;13.98;13.27;;;;;;;;;;5036031;28;20489;-62
2023/04/22 12:00:00;;;;;;;13.82;13.13;;;;;;;;;;5051802;28;20077;-62
2023/04/22 12:02:25;;;;;;;12.88;12.27;;;;;;;;;;5040852;28;20031;-63
2023/04/22 12:04:51;;;;;;;14.00;13.30;;;;;;;;;;5052801;28;20021;-63
2023/04/22 12:07:16;;;;;;;13.65;12.95;;;;;;;;;;5052653;28;20013;-63
2023/04/22 12:09:41;;;;;;;12.95;12.35;;;;;;;;;;5052422;28;20071;-63
2023/04/22 12:12:07;;;;;;;14.25;13.50;;;;;;;;;;5052198;28;20020;-64
2023/04/22 12:14:33;;;;;;;13.35;12.65;;;;;;;;;;5047095;28;20033;-63
2023/04/22 12:17:01;;;;;;;15.00;14.20;;;;;;;;;;5049859;28;20119;-62
2023/04/22 12:19:27;;;;;;;13.25;12.60;;;;;;;;;;5052379;28;20021;-63
2023/04/22 12:21:55;;;;;;;13.02;12.43;;;;;;;;;;5051411;28;20487;-63
2023/04/22 12:24:26;;;;;;;12.90;12.30;;;;;;;;;;5051907;28;20480;-63
2023/04/22 12:26:51;;;;;;;12.63;12.02;;;;;;;;;;5051715;28;20501;-64
2023/04/22 12:29:25;;;;;;;14.05;13.35;;;;;;;;;;5050334;28;20021;-64
2023/04/22 12:31:50;;;;;;;12.57;11.98;;;;;;;;;;5052504;28;20024;-64
2023/04/22 12:34:15;;;;;;;13.98;13.27;;;;;;;;;;5046540;28;20033;-63
2023/04/22 12:36:40;;;;;;;13.05;12.43;;;;;;;;;;5044386;28;20021;-63
2023/04/22 12:39:06;;;;;;;13.07;12.45;;;;;;;;;;5048231;28;20484;-63
2023/04/22 12:41:31;;;;;;;13.80;13.10;;;;;;;;;;5051960;28;20075;-63
2023/04/22 12:43:56;;;;;;;13.73;13.02;;;;;;;;;;5042739;28;20033;-63
2023/04/22 12:46:22;;;;;;;14.00;13.30;;;;;;;;;;5043700;28;20024;-63
2023/04/22 12:48:47;;;;;;;13.05;12.40;;;;;;;;;;5050034;28;20070;-63
2023/04/22 12:51:12;;;;;;;14.45;13.65;;;;;;;;;;5050661;28;20078;-63
2023/04/22 12:53:37;;;;;;;12.68;12.07;;;;;;;;;;5051805;28;20032;-64
2023/04/22 12:56:03;;;;;;;14.07;13.38;;;;;;;;;;5051842;28;20021;-63
2023/04/22 12:58:28;;;;;;;12.73;12.13;;;;;;;;;;5047629;28;20062;-63
2023/04/22 13:00:53;;;;;;;13.15;12.50;;;;;;;;;;5042756;28;20080;-63
2023/04/22 13:03:19;;;;;;;13.57;12.88;;;;;;;;;;5051591;28;20035;-64
2023/04/22 13:05:44;;;;;;;13.80;13.10;;;;;;;;;;5051494;28;20017;-63
2023/04/22 13:08:09;;;;;;;14.18;13.38;;;;;;;;;;5038227;28;20078;-63
2023/04/22 13:10:35;;;;;;;13.60;12.90;;;;;;;;;;5056359;28;20020;-63
2023/04/22 13:13:03;;;;;;;13.02;12.32;;;;;;;;;;5040168;28;20025;-63
2023/04/22 13:15:29;;;;;;;13.73;13.02;;;;;;;;;;5045183;28;20024;-63
2023/04/22 13:17:54;;;;;;;13.35;12.65;;;;;;;;;;5050421;28;20029;-72
2023/04/22 13:20:19;;;;;;;15.45;14.55;;;;;;;;;;5042155;28;20098;-63
2023/04/22 13:22:46;;;;;;;14.82;14.02;;;;;;;;;;5036394;28;20114;-62
2023/04/22 13:25:11;;;;;;;13.50;12.80;;;;;;;;;;5046804;28;20089;-63
2023/04/22 13:27:36;;;;;;;13.18;12.52;;;;;;;;;;5045598;28;20094;-63
2023/04/22 13:30:06;;;;;;;13.23;12.52;;;;;;;;;;5041741;28;20108;-62
2023/04/22 13:32:37;;;;;;;13.88;13.18;;;;;;;;;;5048096;28;20032;-62
2023/04/22 13:35:03;;;;;;;12.90;12.25;;;;;;;;;;5037273;28;20033;-65
2023/04/22 13:37:28;;;;;;;14.50;13.70;;;;;;;;;;5045688;28;20035;-62
2023/04/22 13:39:53;;;;;;;14.25;13.45;;;;;;;;;;5042575;28;20408;-63
2023/04/22 13:42:19;;;;;;;12.80;12.20;;;;;;;;;;5041179;28;20030;-62
2023/04/22 13:44:44;;;;;;;13.05;12.40;;;;;;;;;;5042683;28;20028;-62
2023/04/22 13:47:09;;;;;;;14.15;13.35;;;;;;;;;;5050148;28;20120;-63
2023/04/22 13:49:35;;;;;;;13.23;12.52;;;;;;;;;;5046782;28;20028;-63
2023/04/22 13:52:00;;;;;;;12.88;12.23;;;;;;;;;;5046733;28;20025;-63
2023/04/22 13:54:26;;;;;;;12.73;12.13;;;;;;;;;;5040475;28;20027;-63
2023/04/22 13:56:52;;;;;;;12.70;12.10;;;;;;;;;;5047668;28;20032;-62
2023/04/22 13:59:17;;;;;;;13.65;12.95;;;;;;;;;;5045344;28;20036;-63
2023/04/22 14:01:43;;;;;;;12.70;12.10;;;;;;;;;;5046006;28;20060;-62
2023/04/22 14:04:08;;;;;;;13.32;12.63;;;;;;;;;;5041140;28;20032;-63
2023/04/22 14:06:33;;;;;;;14.00;13.20;;;;;;;;;;5040209;28;20032;-61
2023/04/22 14:08:59;;;;;;;14.43;13.63;;;;;;;;;;5039280;28;20109;-62